Time;durP1;ratioP1;P1;durP2;ratioP2;P2;SDS_P1;SDS_P2;PMS_P1;PMS_P2;Temp;Humidity;BMP_temperature;BMP_pressure;BME280_temperature;BME280_humidity;BME280_pressure;Samples;Min_cycle;Max_cycle;Signal;HPM_P1;HPM_P2
2022/04/22 00:01:17;;;;;;;9.75;5.85;;;12.70;25.90;;;;;;5004834;28;25141;-63
2022/04/22 00:03:43;;;;;;;9.98;6.07;;;12.70;25.30;;;;;;5003903;28;25090;-62
2022/04/22 00:06:09;;;;;;;10.82;6.05;;;12.60;25.60;;;;;;5007253;28;25085;-62
2022/04/22 00:08:35;;;;;;;9.45;6.47;;;12.60;25.20;;;;;;5010608;28;25097;-61
2022/04/22 00:13:45;;;;;;;12.55;6.55;;;12.50;25.20;;;;;;5009450;28;25128;-63
2022/04/22 00:16:11;;;;;;;11.38;6.32;;;12.50;25.50;;;;;;5007827;28;25133;-62
2022/04/22 00:18:38;;;;;;;10.60;7.00;;;12.50;26.00;;;;;;5007903;28;25049;-61
2022/04/22 00:21:04;;;;;;;8.90;6.80;;;12.40;26.30;;;;;;5007080;28;25132;-64
2022/04/22 00:23:30;;;;;;;12.68;7.32;;;12.40;26.90;;;;;;5006592;28;25102;-64
2022/04/22 00:25:56;;;;;;;13.32;7.22;;;12.40;27.20;;;;;;5003999;28;25152;-64
2022/04/22 00:28:22;;;;;;;14.30;7.80;;;12.30;27.30;;;;;;5003988;28;24872;-62
2022/04/22 00:30:47;;;;;;;10.23;8.15;;;12.30;27.70;;;;;;5003221;28;25100;-63
2022/04/22 00:33:16;;;;;;;14.80;7.97;;;12.30;27.50;;;;;;5005371;28;25082;-64
2022/04/22 00:35:44;;;;;;;18.38;8.38;;;12.30;27.70;;;;;;5006969;28;25055;-64
2022/04/22 00:38:10;;;;;;;12.50;8.02;;;12.30;27.70;;;;;;5004124;28;25141;-64
2022/04/22 00:40:35;;;;;;;11.63;8.50;;;12.20;27.90;;;;;;5002910;28;25052;-63
2022/04/22 00:43:19;;;;;;;13.27;8.38;;;12.20;28.10;;;;;;5003491;28;25067;-63
2022/04/22 00:45:44;;;;;;;12.98;8.70;;;12.20;28.40;;;;;;5006083;28;25080;-63
2022/04/22 00:48:10;;;;;;;12.07;8.10;;;12.20;29.00;;;;;;5008150;28;25111;-63
2022/04/22 00:50:38;;;;;;;16.40;8.50;;;12.10;29.40;;;;;;5007996;28;25069;-63
2022/04/22 00:53:05;;;;;;;11.10;8.32;;;12.10;29.70;;;;;;5005870;28;25059;-62
2022/04/22 00:55:31;;;;;;;15.52;9.23;;;12.00;31.20;;;;;;5006454;28;25067;-66
2022/04/22 00:57:58;;;;;;;11.88;8.23;;;12.00;31.90;;;;;;5009042;28;25079;-62
2022/04/22 01:00:24;;;;;;;13.38;9.23;;;11.80;33.60;;;;;;5007593;28;25078;-64
2022/04/22 01:02:50;;;;;;;16.33;8.80;;;11.70;34.50;;;;;;5006873;28;25118;-64
2022/04/22 01:10:44;;;;;;;13.55;9.30;;;11.70;36.20;;;;;;5006705;28;25088;-63
2022/04/22 01:13:10;;;;;;;11.52;8.52;;;11.60;36.40;;;;;;5006159;28;25057;-62
2022/04/22 01:15:36;;;;;;;16.45;9.55;;;11.50;36.90;;;;;;5007115;28;25137;-63
2022/04/22 01:18:03;;;;;;;16.08;8.90;;;11.50;37.90;;;;;;5003531;28;25105;-63
2022/04/22 01:20:29;;;;;;;13.15;9.32;;;11.50;39.10;;;;;;5006999;28;25060;-64
2022/04/22 01:22:58;;;;;;;14.30;9.45;;;11.40;39.90;;;;;;5007527;28;25060;-63
2022/04/22 01:25:23;;;;;;;12.95;9.55;;;11.30;40.90;;;;;;5002760;28;25072;-63
2022/04/22 01:27:51;;;;;;;14.43;9.57;;;11.30;41.90;;;;;;5007446;28;25132;-61
2022/04/22 01:30:21;;;;;;;16.00;10.38;;;11.30;42.40;;;;;;5004527;28;25082;-63
2022/04/22 01:32:52;;;;;;;14.80;9.98;;;11.20;43.50;;;;;;5003022;28;25056;-63
2022/04/22 01:35:18;;;;;;;14.23;9.10;;;11.10;44.30;;;;;;5004962;28;25072;-64
2022/04/22 01:37:44;;;;;;;14.60;9.43;;;11.10;44.80;;;;;;5008417;28;25141;-66
2022/04/22 01:40:11;;;;;;;22.90;9.93;;;11.10;45.30;;;;;;5010242;28;25070;-64
2022/04/22 01:42:37;;;;;;;15.07;10.02;;;11.00;46.10;;;;;;5007030;28;25113;-63
2022/04/22 01:45:04;;;;;;;16.67;9.60;;;11.00;46.70;;;;;;5008222;28;25070;-63
2022/04/22 01:47:30;;;;;;;15.90;9.80;;;11.00;47.30;;;;;;5010564;28;25050;-61
2022/04/22 01:49:56;;;;;;;17.27;10.85;;;10.90;47.80;;;;;;5013284;28;25137;-64
2022/04/22 01:52:23;;;;;;;15.32;10.45;;;10.90;48.70;;;;;;5010280;28;25077;-65
2022/04/22 01:54:52;;;;;;;15.02;9.95;;;10.80;49.40;;;;;;5007748;28;25050;-63
2022/04/22 01:57:18;;;;;;;14.43;10.00;;;10.80;50.10;;;;;;5008209;28;25076;-64
2022/04/22 01:59:46;;;;;;;14.57;9.55;;;10.80;50.40;;;;;;5007528;28;25085;-64
2022/04/22 02:02:16;;;;;;;14.23;10.27;;;10.80;50.70;;;;;;5008755;28;25060;-64
2022/04/22 02:04:41;;;;;;;14.23;10.35;;;10.80;51.10;;;;;;5011360;28;25048;-62
2022/04/22 02:07:07;;;;;;;18.10;10.50;;;10.70;51.30;;;;;;5013043;28;25059;-63
2022/04/22 02:09:33;;;;;;;16.40;9.60;;;10.70;51.30;;;;;;5009559;28;25059;-62
2022/04/22 02:11:59;;;;;;;12.93;9.60;;;10.70;51.80;;;;;;5009866;28;25147;-64
2022/04/22 02:14:25;;;;;;;13.82;10.38;;;10.70;52.40;;;;;;5005690;28;25160;-64
2022/04/22 02:16:54;;;;;;;18.48;11.13;;;10.60;53.40;;;;;;5009841;28;25129;-63
2022/04/22 02:19:20;;;;;;;14.15;9.82;;;10.60;54.70;;;;;;5044555;22;25082;-65
2022/04/22 02:21:46;;;;;;;13.80;9.93;;;10.50;55.50;;;;;;5046673;28;25057;-64
2022/04/22 02:24:12;;;;;;;14.60;10.10;;;10.50;56.10;;;;;;5045072;28;25071;-66
2022/04/22 02:29:22;;;;;;;12.60;9.90;;;10.40;57.60;;;;;;5041933;28;25061;-66
2022/04/22 02:31:51;;;;;;;15.15;11.25;;;10.30;58.20;;;;;;5039273;28;25150;-65
2022/04/22 02:34:17;;;;;;;14.93;10.32;;;10.30;58.90;;;;;;5036880;28;25073;-67
2022/04/22 02:36:44;;;;;;;14.63;10.00;;;10.30;59.30;;;;;;5038767;28;25068;-66
2022/04/22 02:39:09;;;;;;;18.17;11.32;;;10.30;59.90;;;;;;5038451;28;25046;-66
2022/04/22 02:47:23;;;;;;;15.85;10.40;;;10.20;61.00;;;;;;5024187;28;25074;-68
2022/04/22 02:49:49;;;;;;;16.13;9.88;;;10.20;61.10;;;;;;5021531;28;25089;-67
2022/04/22 02:52:15;;;;;;;18.10;9.73;;;10.20;61.70;;;;;;5028834;28;25114;-66
2022/04/22 02:54:41;;;;;;;13.35;9.85;;;10.20;62.50;;;;;;5038420;28;25059;-64
2022/04/22 02:57:08;;;;;;;15.57;9.98;;;10.10;63.40;;;;;;5037693;28;25178;-65
2022/04/22 02:59:35;;;;;;;14.90;10.82;;;10.10;64.10;;;;;;5038833;28;25096;-65
2022/04/22 03:02:01;;;;;;;16.23;10.38;;;10.00;64.50;;;;;;5038249;28;25106;-66
2022/04/22 03:04:26;;;;;;;17.23;10.63;;;10.00;64.50;;;;;;5036853;28;25145;-65
2022/04/22 03:06:55;;;;;;;13.65;10.05;;;9.90;65.90;;;;;;5037647;28;25066;-66
2022/04/22 03:09:21;;;;;;;15.45;9.95;;;9.90;66.50;;;;;;5037409;28;25064;-66
2022/04/22 03:11:46;;;;;;;16.67;10.90;;;9.90;67.20;;;;;;5036622;28;25075;-66
2022/04/22 03:14:12;;;;;;;16.25;10.40;;;9.90;67.60;;;;;;5038899;28;25074;-65
2022/04/22 03:16:38;;;;;;;16.30;9.57;;;9.90;67.20;;;;;;5050679;28;25058;-66
2022/04/22 03:19:03;;;;;;;14.90;10.05;;;9.90;68.00;;;;;;5044914;28;25083;-67
2022/04/22 03:21:29;;;;;;;15.55;10.63;;;9.90;67.90;;;;;;5037601;28;25104;-66
2022/04/22 03:23:56;;;;;;;15.07;10.27;;;9.90;68.20;;;;;;5037122;28;25138;-65
2022/04/22 03:26:21;;;;;;;13.07;9.60;;;9.90;68.30;;;;;;5035095;28;25051;-67
2022/04/22 03:28:47;;;;;;;19.38;10.15;;;9.90;68.60;;;;;;5038606;28;25147;-66
2022/04/22 03:31:13;;;;;;;15.30;10.02;;;9.90;68.70;;;;;;5035524;28;25114;-67
2022/04/22 03:33:38;;;;;;;16.50;10.07;;;9.90;69.20;;;;;;5037600;28;25052;-67
2022/04/22 03:36:04;;;;;;;14.95;9.65;;;10.00;68.80;;;;;;5038929;28;25160;-66
2022/04/22 03:38:30;;;;;;;13.82;10.43;;;9.90;68.40;;;;;;5038159;28;25082;-66
2022/04/22 03:40:55;;;;;;;15.15;10.75;;;9.90;68.80;;;;;;5037278;28;25076;-65
2022/04/22 03:43:23;;;;;;;18.13;10.35;;;9.90;69.80;;;;;;5035292;28;25147;-65
2022/04/22 03:45:49;;;;;;;14.68;10.32;;;9.80;71.30;;;;;;5037440;28;25105;-65
2022/04/22 03:48:20;;;;;;;20.60;11.35;;;9.80;72.00;;;;;;5038723;28;25158;-66
2022/04/22 03:50:46;;;;;;;16.83;9.95;;;9.80;72.00;;;;;;5038765;28;25049;-65
2022/04/22 03:53:12;;;;;;;13.55;10.10;;;9.80;72.70;;;;;;5036881;28;25082;-65
2022/04/22 03:55:39;;;;;;;19.05;11.32;;;9.80;72.80;;;;;;5037962;28;25089;-66
2022/04/22 03:58:11;;;;;;;15.63;9.75;;;9.80;73.50;;;;;;5038123;28;25057;-66
2022/04/22 04:00:41;;;;;;;15.00;9.98;;;9.80;73.60;;;;;;5035159;28;25121;-65
2022/04/22 04:03:09;;;;;;;17.40;11.02;;;9.80;73.40;;;;;;5036139;28;25080;-66
2022/04/22 04:05:34;;;;;;;12.23;8.95;;;9.70;74.00;;;;;;5036144;28;25111;-65
2022/04/22 04:08:00;;;;;;;18.33;9.98;;;9.70;74.50;;;;;;5037805;28;25081;-67
2022/04/22 04:16:00;;;;;;;16.45;10.07;;;9.70;78.30;;;;;;5036294;28;25069;-66
2022/04/22 04:18:27;;;;;;;15.82;9.75;;;9.60;81.10;;;;;;5038466;28;25054;-66
2022/04/22 04:23:37;;;;;;;16.33;9.95;;;9.60;84.60;;;;;;5037147;28;25070;-65
2022/04/22 04:26:03;;;;;;;11.30;9.43;;;9.60;86.20;;;;;;5036240;28;25073;-65
2022/04/22 04:28:28;;;;;;;16.08;10.25;;;9.60;88.80;;;;;;5034252;28;25093;-67
2022/04/22 04:30:55;;;;;;;14.25;9.55;;;9.60;90.70;;;;;;5038490;28;25298;-66
2022/04/22 04:33:21;;;;;;;15.05;10.50;;;9.60;91.80;;;;;;5036921;28;25058;-65
2022/04/22 04:35:47;;;;;;;14.35;10.38;;;9.70;92.40;;;;;;5040125;28;25063;-66
2022/04/22 04:38:16;;;;;;;17.17;11.10;;;9.60;93.30;;;;;;5033817;28;25047;-64
2022/04/22 04:40:42;;;;;;;17.67;11.40;;;9.60;93.80;;;;;;5036530;28;25061;-66
2022/04/22 04:43:08;;;;;;;15.68;11.25;;;9.60;95.20;;;;;;5035264;28;25080;-66
2022/04/22 04:45:35;;;;;;;15.32;10.98;;;9.60;95.80;;;;;;5039856;28;25078;-65
2022/04/22 04:48:00;;;;;;;17.63;11.88;;;9.60;96.30;;;;;;5038389;28;25092;-64
2022/04/22 04:50:26;;;;;;;18.90;12.43;;;9.60;97.30;;;;;;5036944;28;25167;-64
2022/04/22 04:52:52;;;;;;;16.30;10.32;;;9.60;98.20;;;;;;5034871;28;25081;-65
2022/04/22 04:55:18;;;;;;;18.00;11.98;;;9.60;99.30;;;;;;5035780;28;25058;-65
2022/04/22 04:57:43;;;;;;;18.73;11.15;;;9.60;99.10;;;;;;5031868;28;25146;-66
2022/04/22 05:00:10;;;;;;;15.60;11.45;;;9.60;99.90;;;;;;5034293;28;25071;-67
2022/04/22 05:02:37;;;;;;;21.75;12.07;;;9.60;99.90;;;;;;5034476;28;25072;-65
2022/04/22 05:05:07;;;;;;;20.77;12.73;;;9.60;99.90;;;;;;5034088;28;25056;-65
2022/04/22 05:07:34;;;;;;;23.75;12.45;;;9.60;99.90;;;;;;5035542;28;25067;-65
2022/04/22 05:09:59;;;;;;;18.52;11.77;;;9.60;99.90;;;;;;5035383;28;25053;-66
2022/04/22 05:12:25;;;;;;;16.85;12.65;;;9.60;99.90;;;;;;5034753;28;25117;-66
2022/04/22 05:14:52;;;;;;;24.52;14.27;;;9.70;99.90;;;;;;5034292;28;25081;-65
2022/04/22 05:17:17;;;;;;;18.42;13.00;;;9.70;99.90;;;;;;5036451;28;25056;-66
2022/04/22 05:19:43;;;;;;;20.38;13.93;;;9.60;99.90;;;;;;5033077;28;25152;-65
2022/04/22 05:22:08;;;;;;;22.63;13.45;;;9.70;99.90;;;;;;5034913;28;25056;-65
2022/04/22 05:24:37;;;;;;;25.08;14.90;;;9.70;99.90;;;;;;5035090;28;25062;-64
2022/04/22 05:27:04;;;;;;;23.65;15.23;;;9.70;99.90;;;;;;5034236;28;25099;-67
2022/04/22 05:34:57;;;;;;;32.35;14.85;;;9.70;99.90;;;;;;5042870;28;25078;-66
2022/04/22 05:37:23;;;;;;;24.42;15.70;;;9.70;99.90;;;;;;5037230;28;25068;-65
2022/04/22 05:39:48;;;;;;;25.33;14.55;;;9.70;99.90;;;;;;5040004;28;25071;-66
2022/04/22 05:42:14;;;;;;;22.13;14.15;;;9.80;99.90;;;;;;5044401;28;25080;-65
2022/04/22 05:44:39;;;;;;;19.95;14.55;;;9.80;99.90;;;;;;5040476;28;25069;-65
2022/04/22 05:47:07;;;;;;;22.35;15.25;;;9.80;99.90;;;;;;5039496;28;25073;-66
2022/04/22 05:49:32;;;;;;;28.60;15.98;;;9.80;99.90;;;;;;5039289;28;25085;-67
2022/04/22 05:51:58;;;;;;;25.27;15.93;;;9.90;99.90;;;;;;5039682;28;25113;-66
2022/04/22 05:54:23;;;;;;;21.27;14.80;;;10.00;99.90;;;;;;5038122;28;25092;-65
2022/04/22 05:56:49;;;;;;;21.30;15.18;;;10.00;99.90;;;;;;5040029;28;25067;-66
2022/04/22 05:59:14;;;;;;;20.35;14.77;;;10.10;99.90;;;;;;5039480;28;25155;-66
2022/04/22 06:01:40;;;;;;;23.30;15.68;;;10.10;99.90;;;;;;5039200;28;25078;-67
2022/04/22 06:04:06;;;;;;;23.20;15.77;;;10.10;99.90;;;;;;5039714;28;25069;-67
2022/04/22 06:06:31;;;;;;;21.58;15.70;;;10.20;99.90;;;;;;5038623;28;25063;-66
2022/04/22 06:11:41;;;;;;;23.77;15.98;;;10.30;99.90;;;;;;5039099;28;25123;-65
2022/04/22 06:14:09;;;;;;;19.20;14.82;;;10.30;99.90;;;;;;5039238;28;25055;-65
2022/04/22 06:16:35;;;;;;;21.50;15.13;;;10.30;99.90;;;;;;5041445;28;25058;-66
2022/04/22 06:19:00;;;;;;;23.73;16.40;;;10.30;99.80;;;;;;5044810;28;25111;-64
2022/04/22 06:21:29;;;;;;;21.52;15.10;;;10.40;99.60;;;;;;5040537;28;25079;-65
2022/04/22 06:23:54;;;;;;;21.40;15.25;;;10.50;99.90;;;;;;5039491;28;25084;-66
2022/04/22 06:26:20;;;;;;;19.98;15.13;;;10.50;97.70;;;;;;5041294;28;25108;-66
2022/04/22 06:28:45;;;;;;;18.65;14.55;;;10.50;97.30;;;;;;5040817;28;25086;-64
2022/04/22 06:31:11;;;;;;;19.23;14.93;;;10.60;96.80;;;;;;5039917;28;25101;-65
2022/04/22 06:33:38;;;;;;;21.25;15.52;;;10.60;96.20;;;;;;5038967;28;25125;-66
2022/04/22 06:36:11;;;;;;;19.90;15.10;;;10.60;95.30;;;;;;5040125;28;25120;-65
2022/04/22 06:38:38;;;;;;;21.40;14.80;;;10.60;94.80;;;;;;5038762;28;25101;-67
2022/04/22 06:46:33;;;;;;;20.67;15.07;;;10.70;93.60;;;;;;5040468;28;25076;-66
2022/04/22 06:48:58;;;;;;;21.17;15.13;;;10.60;92.40;;;;;;5040983;28;25153;-66
2022/04/22 06:51:25;;;;;;;18.60;14.88;;;10.60;92.80;;;;;;5037727;28;25077;-66
2022/04/22 06:53:52;;;;;;;21.75;14.77;;;10.70;92.00;;;;;;5036751;28;25055;-65
2022/04/22 06:56:22;;;;;;;23.95;14.23;;;10.80;91.70;;;;;;5038016;28;25096;-65
2022/04/22 06:58:48;;;;;;;16.23;13.75;;;10.70;90.10;;;;;;5037982;28;25089;-66
2022/04/22 07:01:14;;;;;;;19.15;14.27;;;10.80;90.50;;;;;;5038048;28;25055;-66
2022/04/22 07:03:40;;;;;;;18.13;14.00;;;10.80;89.70;;;;;;5037107;28;25054;-66
2022/04/22 07:06:05;;;;;;;18.30;14.48;;;10.90;90.20;;;;;;5038825;28;25073;-65
2022/04/22 07:08:31;;;;;;;18.98;14.65;;;10.90;86.50;;;;;;5037363;28;25112;-65
2022/04/22 07:11:00;;;;;;;22.00;15.18;;;10.80;87.90;;;;;;5041154;28;25148;-66
2022/04/22 07:13:26;;;;;;;28.08;15.93;;;10.80;89.00;;;;;;5042400;28;25105;-66
2022/04/22 07:15:53;;;;;;;20.52;14.35;;;10.80;89.90;;;;;;5038266;28;25088;-67
2022/04/22 07:18:19;;;;;;;18.17;14.98;;;11.00;90.80;;;;;;5037272;28;25100;-66
2022/04/22 07:20:45;;;;;;;17.75;13.60;;;11.20;89.00;;;;;;5037756;28;25083;-66
2022/04/22 07:23:12;;;;;;;19.23;14.57;;;11.30;84.00;;;;;;5038954;28;25115;-66
2022/04/22 07:25:38;;;;;;;20.67;14.38;;;11.20;83.00;;;;;;5038669;28;25082;-64
2022/04/22 07:28:04;;;;;;;19.52;15.27;;;11.20;82.30;;;;;;5037699;28;25089;-66
2022/04/22 07:30:30;;;;;;;18.42;14.15;;;11.30;81.50;;;;;;5038195;28;25059;-67
2022/04/22 07:32:56;;;;;;;19.73;14.68;;;11.50;76.10;;;;;;5037867;28;25116;-66
2022/04/22 07:35:22;;;;;;;19.08;16.40;;;11.60;74.40;;;;;;5036981;28;25177;-66
2022/04/22 07:37:53;;;;;;;18.52;15.48;;;11.60;69.70;;;;;;5038049;28;25064;-66
2022/04/22 07:40:20;;;;;;;18.95;16.30;;;11.60;72.20;;;;;;5037418;28;25119;-65
2022/04/22 07:48:36;;;;;;;19.80;15.13;;;11.90;67.10;;;;;;5044024;28;25064;-67
2022/04/22 07:51:01;;;;;;;19.70;16.10;;;12.10;66.00;;;;;;5042941;28;25068;-66
2022/04/22 07:53:27;;;;;;;23.00;16.90;;;12.00;63.50;;;;;;5038500;28;25082;-65
2022/04/22 07:55:53;;;;;;;21.98;14.07;;;11.80;65.80;;;;;;5036958;28;25051;-66
2022/04/22 07:58:19;;;;;;;22.13;14.90;;;12.00;64.30;;;;;;5037074;28;25052;-67
2022/04/22 08:00:45;;;;;;;23.65;15.52;;;12.00;66.00;;;;;;5037173;28;25117;-65
2022/04/22 08:03:11;;;;;;;20.52;15.63;;;11.90;65.00;;;;;;5036942;28;25064;-67
2022/04/22 08:05:40;;;;;;;20.20;15.52;;;11.90;65.40;;;;;;5036347;28;25133;-67
2022/04/22 08:08:07;;;;;;;20.52;15.85;;;12.00;63.90;;;;;;5037652;28;25051;-66
2022/04/22 08:10:33;;;;;;;18.45;14.52;;;12.00;64.50;;;;;;5037913;28;25114;-64
2022/04/22 08:12:59;;;;;;;21.17;16.02;;;12.00;65.30;;;;;;5037145;28;25157;-67
2022/04/22 08:15:24;;;;;;;26.77;16.10;;;12.00;65.60;;;;;;5037268;28;25097;-66
2022/04/22 08:17:50;;;;;;;19.65;14.95;;;12.10;63.60;;;;;;5036429;28;25150;-66
2022/04/22 08:20:17;;;;;;;17.55;14.95;;;12.40;63.80;;;;;;5027445;22;25067;-62
2022/04/22 08:22:44;;;;;;;23.63;15.40;;;12.60;58.90;;;;;;5005718;28;25110;-63
2022/04/22 08:25:11;;;;;;;18.02;14.13;;;12.60;56.10;;;;;;5017489;28;25066;-64
2022/04/22 08:27:36;;;;;;;17.20;13.88;;;12.80;54.60;;;;;;5026152;28;25144;-64
2022/04/22 08:30:02;;;;;;;19.60;13.45;;;12.80;53.50;;;;;;5017834;28;25060;-61
2022/04/22 08:32:27;;;;;;;18.88;14.40;;;12.70;53.60;;;;;;5013914;28;25190;-64
2022/04/22 08:34:53;;;;;;;18.08;13.65;;;12.80;51.80;;;;;;5014124;28;25066;-63
2022/04/22 08:37:19;;;;;;;18.25;14.65;;;13.00;51.20;;;;;;5013609;28;25110;-61
2022/04/22 08:39:45;;;;;;;19.20;14.32;;;12.90;51.40;;;;;;5011309;28;25101;-63
2022/04/22 08:42:15;;;;;;;18.08;15.00;;;13.20;51.40;;;;;;5010765;28;25088;-62
2022/04/22 08:44:41;;;;;;;17.38;13.35;;;13.30;49.50;;;;;;5008233;28;25076;-64
2022/04/22 08:50:02;;;;;;;14.98;12.40;;;13.80;44.50;;;;;;5012765;28;25077;-64
2022/04/22 08:52:33;;;;;;;21.80;13.10;;;14.10;40.10;;;;;;5013948;28;25146;-62
2022/04/22 08:55:01;;;;;;;17.90;13.55;;;14.10;40.00;;;;;;5012320;28;25127;-63
2022/04/22 08:57:30;;;;;;;15.60;12.05;;;14.30;41.20;;;;;;5008907;28;25145;-63
2022/04/22 09:00:07;;;;;;;15.32;11.45;;;14.80;39.40;;;;;;5007691;28;25112;-65
2022/04/22 09:02:33;;;;;;;19.00;12.80;;;14.50;32.80;;;;;;5006080;28;25073;-63
2022/04/22 09:04:59;;;;;;;15.13;11.68;;;14.00;35.30;;;;;;5007318;28;25085;-63
2022/04/22 09:07:29;;;;;;;15.60;12.50;;;14.00;37.60;;;;;;5007565;28;25070;-64
2022/04/22 09:09:54;;;;;;;15.75;11.55;;;13.80;37.30;;;;;;5006150;28;25110;-62
2022/04/22 09:12:25;;;;;;;19.23;14.43;;;13.80;38.70;;;;;;5006779;28;25067;-64
2022/04/22 09:14:57;;;;;;;16.67;12.35;;;13.70;37.50;;;;;;5019920;28;25059;-62
2022/04/22 09:17:26;;;;;;;17.67;11.60;;;13.70;40.40;;;;;;5021669;28;25122;-63
2022/04/22 09:19:53;;;;;;;15.23;12.23;;;13.80;39.90;;;;;;5005937;28;25068;-62
2022/04/22 09:22:20;;;;;;;12.73;11.27;;;14.40;37.80;;;;;;5006642;28;25107;-61
2022/04/22 09:24:50;;;;;;;17.00;11.25;;;14.80;33.70;;;;;;5005197;28;25065;-62
2022/04/22 09:27:17;;;;;;;17.88;10.95;;;14.90;30.80;;;;;;5005345;28;25060;-62
2022/04/22 09:29:42;;;;;;;15.05;11.75;;;14.80;29.50;;;;;;5007697;28;25066;-65
2022/04/22 09:32:11;;;;;;;16.85;12.00;;;14.80;28.60;;;;;;5008602;28;25058;-61
2022/04/22 09:34:39;;;;;;;17.27;12.57;;;14.70;30.00;;;;;;5023157;28;25129;-63
2022/04/22 09:42:53;;;;;;;;;;;15.30;26.40;;;;;;5007349;28;25051;-64
2022/04/22 09:45:19;;;;;;;13.85;11.20;;;15.60;25.50;;;;;;5006711;28;24089;-63
2022/04/22 09:47:56;;;;;;;16.70;10.15;;;15.60;23.70;;;;;;5006339;28;25076;-63
2022/04/22 09:50:39;;;;;;;19.67;9.68;;;16.00;23.30;;;;;;5006002;28;25130;-63
2022/04/22 09:53:04;;;;;;;15.30;10.13;;;16.60;21.70;;;;;;5005750;28;25122;-61
2022/04/22 09:55:34;;;;;;;10.07;8.73;;;16.50;18.80;;;;;;5005962;28;25066;-62
2022/04/22 09:58:00;;;;;;;12.90;9.60;;;16.20;20.10;;;;;;5005563;28;25057;-63
2022/04/22 10:00:27;;;;;;;9.57;8.25;;;16.30;18.20;;;;;;5005733;28;25134;-62
2022/04/22 10:02:55;;;;;;;8.85;7.35;;;16.30;17.40;;;;;;5005994;28;25064;-63
2022/04/22 10:05:28;;;;;;;12.82;8.38;;;16.50;17.90;;;;;;5006125;28;25085;-62
2022/04/22 10:07:55;;;;;;;15.40;8.35;;;16.90;16.50;;;;;;5004825;28;25125;-61
2022/04/22 10:10:26;;;;;;;12.15;8.88;;;16.60;16.30;;;;;;5005534;28;25077;-63
2022/04/22 10:12:58;;;;;;;9.48;7.88;;;16.70;16.40;;;;;;5005165;28;25056;-63
2022/04/22 10:15:29;;;;;;;10.55;7.93;;;16.70;15.70;;;;;;5006766;28;25095;-62
2022/04/22 10:17:55;;;;;;;10.82;7.32;;;16.90;13.50;;;;;;5006828;28;25041;-64
2022/04/22 10:20:21;;;;;;;13.32;6.57;;;16.80;13.50;;;;;;5008027;28;25059;-62
2022/04/22 10:22:49;;;;;;;11.75;7.10;;;17.30;14.00;;;;;;5006398;28;25127;-63
2022/04/22 10:25:16;;;;;;;9.63;7.72;;;17.20;10.70;;;;;;5007021;28;25107;-64
2022/04/22 10:27:43;;;;;;;8.93;6.35;;;17.20;9.40;;;;;;5009372;28;25080;-65
2022/04/22 10:30:14;;;;;;;10.57;6.72;;;17.00;9.60;;;;;;5009329;28;25077;-63
2022/04/22 10:32:41;;;;;;;15.15;6.93;;;16.90;6.80;;;;;;5008653;28;25118;-63
2022/04/22 10:35:08;;;;;;;15.82;6.78;;;16.80;8.40;;;;;;5009025;28;25140;-63
2022/04/22 10:37:37;;;;;;;10.32;7.18;;;17.10;7.80;;;;;;5008700;28;25066;-64
2022/04/22 10:40:04;;;;;;;11.00;6.10;;;17.30;6.70;;;;;;5012541;28;25057;-63
2022/04/22 10:42:38;;;;;;;10.05;7.60;;;17.60;7.80;;;;;;5014919;28;25075;-62
2022/04/22 10:47:50;;;;;;;15.35;7.13;;;17.70;7.60;;;;;;5009153;28;25085;-63
2022/04/22 10:50:23;;;;;;;18.40;7.13;;;17.20;6.20;;;;;;5010668;28;25067;-64
2022/04/22 10:52:55;;;;;;;18.17;8.43;;;16.70;6.10;;;;;;5010198;28;25132;-64
2022/04/22 10:55:21;;;;;;;15.77;7.68;;;16.80;7.00;;;;;;5009058;28;25093;-63
2022/04/22 10:57:50;;;;;;;15.35;6.85;;;17.10;6.30;;;;;;5011361;28;25085;-63
2022/04/22 11:00:17;;;;;;;10.68;7.13;;;17.40;7.10;;;;;;5009153;28;25147;-64
2022/04/22 11:02:43;;;;;;;12.23;7.53;;;17.50;7.40;;;;;;5007702;28;25064;-65
2022/04/22 11:05:22;;;;;;;10.73;7.18;;;18.00;6.60;;;;;;5007341;28;25098;-62
2022/04/22 11:07:51;;;;;;;9.07;7.75;;;18.50;3.50;;;;;;5009483;28;25160;-63
2022/04/22 11:10:21;;;;;;;12.57;7.22;;;17.60;5.40;;;;;;5008817;28;25080;-65
2022/04/22 11:12:54;;;;;;;15.05;7.38;;;17.50;5.50;;;;;;5008903;28;25069;-66
2022/04/22 11:15:46;;;;;;;14.70;7.97;;;17.10;6.00;;;;;;5009352;28;25065;-63
2022/04/22 11:18:13;;;;;;;14.23;7.18;;;16.70;6.80;;;;;;5008339;28;25072;-63
2022/04/22 11:20:50;;;;;;;12.25;7.20;;;16.70;6.70;;;;;;5009271;28;25070;-64
2022/04/22 11:23:16;;;;;;;13.50;7.20;;;17.30;6.40;;;;;;5011701;28;25147;-63
2022/04/22 11:25:43;;;;;;;17.27;7.75;;;17.00;5.30;;;;;;5014974;28;25066;-62
2022/04/22 11:28:09;;;;;;;13.00;7.32;;;17.10;5.90;;;;;;5011257;28;25076;-62
2022/04/22 11:30:35;;;;;;;9.82;6.70;;;16.40;5.60;;;;;;5009420;28;25131;-63
2022/04/22 11:33:10;;;;;;;9.77;6.88;;;16.30;8.10;;;;;;5008486;28;25076;-63
2022/04/22 11:35:36;;;;;;;12.35;7.38;;;16.50;7.30;;;;;;5007890;28;25136;-63
2022/04/22 11:38:07;;;;;;;11.73;7.00;;;16.90;7.60;;;;;;5006633;28;25082;-62
2022/04/22 11:40:40;;;;;;;13.20;6.78;;;16.80;5.70;;;;;;5007919;28;25101;-63
2022/04/22 11:43:10;;;;;;;9.25;6.75;;;17.30;6.40;;;;;;5008171;28;25147;-61
2022/04/22 11:45:39;;;;;;;9.75;5.68;;;17.40;2.70;;;;;;5008943;28;25095;-66
2022/04/22 11:48:18;;;;;;;10.75;6.70;;;17.90;3.10;;;;;;5006751;28;25084;-65
2022/04/22 11:50:45;;;;;;;9.45;6.28;;;18.70;1.00;;;;;;5015701;28;25083;-65
2022/04/22 11:53:18;;;;;;;8.63;6.03;;;18.30;1.00;;;;;;5010328;28;25060;-63
2022/04/22 11:55:45;;;;;;;11.18;5.25;;;18.30;1.00;;;;;;5009254;28;25054;-64
2022/04/22 11:58:20;;;;;;;14.88;5.78;;;18.10;1.00;;;;;;5007873;28;25120;-63
2022/04/22 12:06:17;;;;;;;13.27;5.78;;;17.10;1.00;;;;;;5008248;28;25162;-64
2022/04/22 12:09:08;;;;;;;11.80;5.38;;;16.50;2.10;;;;;;5007690;28;25105;-63
2022/04/22 12:11:42;;;;;;;10.95;6.25;;;16.60;3.70;;;;;;5007000;28;25162;-62
2022/04/22 12:14:09;;;;;;;10.10;6.15;;;16.30;5.70;;;;;;5007350;28;25075;-64
2022/04/22 12:16:34;;;;;;;10.00;6.70;;;16.20;7.00;;;;;;5008016;28;25117;-64
2022/04/22 12:19:00;;;;;;;11.50;6.53;;;16.30;7.50;;;;;;5007362;28;25073;-65
2022/04/22 12:21:30;;;;;;;12.63;5.63;;;16.30;5.70;;;;;;5008421;28;25062;-64
2022/04/22 12:24:02;;;;;;;10.30;6.75;;;16.30;6.30;;;;;;5007384;28;25106;-64
2022/04/22 12:26:35;;;;;;;8.87;5.77;;;16.30;7.40;;;;;;5008373;28;25126;-65
2022/04/22 12:29:01;;;;;;;9.10;5.93;;;16.30;5.60;;;;;;5008591;28;25122;-63
2022/04/22 12:31:31;;;;;;;11.65;6.40;;;16.20;6.90;;;;;;5008920;28;25146;-62
2022/04/22 12:34:02;;;;;;;9.63;6.28;;;16.30;6.60;;;;;;5010130;28;25063;-63
2022/04/22 12:36:29;;;;;;;13.45;6.15;;;16.40;5.60;;;;;;5011393;28;25140;-64
2022/04/22 12:38:55;;;;;;;11.02;6.30;;;16.30;5.80;;;;;;5011571;28;25083;-62
2022/04/22 12:41:25;;;;;;;8.65;6.25;;;16.40;6.10;;;;;;5010379;28;25176;-63
2022/04/22 12:43:56;;;;;;;16.02;6.75;;;16.30;6.60;;;;;;5006159;28;25105;-65
2022/04/22 12:52:12;;;;;;;11.65;6.75;;;16.00;8.50;;;;;;5012323;28;25073;-64
2022/04/22 12:54:39;;;;;;;8.98;6.07;;;16.00;9.60;;;;;;5011373;28;25522;-64
2022/04/22 12:57:05;;;;;;;10.18;6.05;;;16.10;7.40;;;;;;5011261;28;25071;-65
2022/04/22 12:59:44;;;;;;;12.15;7.13;;;16.10;8.20;;;;;;5023541;28;24700;-63
2022/04/22 13:02:13;;;;;;;8.32;6.15;;;16.20;7.20;;;;;;5009223;28;25139;-65
2022/04/22 13:04:57;;;;;;;10.38;6.80;;;16.30;7.50;;;;;;5008874;28;25072;-66
2022/04/22 13:07:23;;;;;;;10.40;6.13;;;16.50;7.20;;;;;;5008737;28;25083;-64
2022/04/22 13:09:50;;;;;;;8.98;6.22;;;16.60;6.20;;;;;;5005477;28;25108;-64
2022/04/22 13:12:16;;;;;;;10.75;6.15;;;16.50;4.20;;;;;;5007501;28;25073;-63
2022/04/22 13:14:42;;;;;;;10.02;6.05;;;16.40;5.30;;;;;;5007188;28;25047;-65
2022/04/22 13:17:24;;;;;;;18.77;6.28;;;16.40;4.70;;;;;;5008174;28;25121;-65
2022/04/22 13:19:49;;;;;;;9.18;6.20;;;16.50;4.90;;;;;;5007533;28;25137;-66
2022/04/22 13:22:15;;;;;;;10.05;6.18;;;16.30;5.40;;;;;;5006993;28;25132;-65
2022/04/22 13:24:44;;;;;;;7.60;5.43;;;16.50;6.90;;;;;;5007303;28;25075;-65
2022/04/22 13:27:13;;;;;;;13.60;6.40;;;16.50;6.60;;;;;;5006540;28;25084;-64
2022/04/22 13:29:39;;;;;;;14.18;5.75;;;16.40;6.40;;;;;;5006166;28;25068;-65
2022/04/22 13:32:05;;;;;;;10.23;6.50;;;16.40;7.80;;;;;;5006924;28;25050;-65
2022/04/22 13:34:30;;;;;;;10.63;6.80;;;16.50;7.30;;;;;;5014162;28;25076;-63
2022/04/22 13:36:56;;;;;;;13.95;6.70;;;16.40;7.80;;;;;;5009190;28;25069;-65
2022/04/22 13:39:21;;;;;;;12.25;6.20;;;16.40;8.40;;;;;;5006319;28;25136;-63
2022/04/22 13:41:47;;;;;;;8.43;5.55;;;16.40;7.80;;;;;;5006990;28;25134;-64
2022/04/22 13:44:12;;;;;;;14.68;6.07;;;16.30;7.90;;;;;;5006189;28;25067;-64
2022/04/22 13:52:22;;;;;;;10.07;5.55;;;16.50;4.80;;;;;;5009300;28;25076;-62